sensor_id;sensor_type;location;lat;lon;timestamp;temperature;humidity
26537;DHT22;14204;51.262;5.488;2023-10-13T00:01:22;19.00;99.90
26537;DHT22;14204;51.262;5.488;2023-10-13T00:03:49;19.00;99.90
26537;DHT22;14204;51.262;5.488;2023-10-13T00:06:16;19.00;99.90
26537;DHT22;14204;51.262;5.488;2023-10-13T00:08:44;19.00;99.90
26537;DHT22;14204;51.262;5.488;2023-10-13T00:11:13;19.00;99.90
26537;DHT22;14204;51.262;5.488;2023-10-13T00:13:39;19.00;99.90
26537;DHT22;14204;51.262;5.488;2023-10-13T00:16:18;19.00;99.90
26537;DHT22;14204;51.262;5.488;2023-10-13T00:18:50;19.10;99.90
26537;DHT22;14204;51.262;5.488;2023-10-13T00:21:20;19.00;99.90
26537;DHT22;14204;51.262;5.488;2023-10-13T00:23:57;19.10;99.90
26537;DHT22;14204;51.262;5.488;2023-10-13T00:26:27;19.00;99.90
26537;DHT22;14204;51.262;5.488;2023-10-13T00:28:58;19.10;99.90
26537;DHT22;14204;51.262;5.488;2023-10-13T00:31:39;19.10;99.90
26537;DHT22;14204;51.262;5.488;2023-10-13T00:34:06;19.10;99.90
26537;DHT22;14204;51.262;5.488;2023-10-13T00:36:54;19.10;99.90
26537;DHT22;14204;51.262;5.488;2023-10-13T00:39:39;19.20;99.90
26537;DHT22;14204;51.262;5.488;2023-10-13T00:42:14;19.10;99.90
26537;DHT22;14204;51.262;5.488;2023-10-13T00:44:56;19.20;99.90
26537;DHT22;14204;51.262;5.488;2023-10-13T00:47:22;19.10;99.90
26537;DHT22;14204;51.262;5.488;2023-10-13T00:50:08;19.10;99.90
26537;DHT22;14204;51.262;5.488;2023-10-13T00:52:37;19.10;99.90
26537;DHT22;14204;51.262;5.488;2023-10-13T00:55:07;19.10;99.90
26537;DHT22;14204;51.262;5.488;2023-10-13T00:57:35;19.10;99.90
26537;DHT22;14204;51.262;5.488;2023-10-13T01:00:02;19.10;99.90
26537;DHT22;14204;51.262;5.488;2023-10-13T01:02:43;19.10;99.90
26537;DHT22;14204;51.262;5.488;2023-10-13T01:05:09;19.10;99.90
26537;DHT22;14204;51.262;5.488;2023-10-13T01:07:36;19.10;99.90
26537;DHT22;14204;51.262;5.488;2023-10-13T01:10:09;19.20;99.90
26537;DHT22;14204;51.262;5.488;2023-10-13T01:12:39;19.20;99.90
26537;DHT22;14204;51.262;5.488;2023-10-13T01:15:09;19.10;99.90
26537;DHT22;14204;51.262;5.488;2023-10-13T01:17:37;19.20;99.90
26537;DHT22;14204;51.262;5.488;2023-10-13T01:20:03;19.20;99.90
26537;DHT22;14204;51.262;5.488;2023-10-13T01:22:33;19.20;99.90
26537;DHT22;14204;51.262;5.488;2023-10-13T01:24:59;19.10;99.90
26537;DHT22;14204;51.262;5.488;2023-10-13T01:27:37;19.10;99.90
26537;DHT22;14204;51.262;5.488;2023-10-13T01:30:04;19.20;99.90
26537;DHT22;14204;51.262;5.488;2023-10-13T01:32:49;19.20;99.90
26537;DHT22;14204;51.262;5.488;2023-10-13T01:35:16;19.10;99.90
26537;DHT22;14204;51.262;5.488;2023-10-13T01:37:44;19.10;99.90
26537;DHT22;14204;51.262;5.488;2023-10-13T01:40:11;19.20;99.90
26537;DHT22;14204;51.262;5.488;2023-10-13T01:42:39;19.10;99.90
26537;DHT22;14204;51.262;5.488;2023-10-13T01:45:05;19.10;99.90
26537;DHT22;14204;51.262;5.488;2023-10-13T01:47:34;19.20;99.90
26537;DHT22;14204;51.262;5.488;2023-10-13T01:50:00;19.10;99.90
26537;DHT22;14204;51.262;5.488;2023-10-13T01:52:47;19.20;99.90
26537;DHT22;14204;51.262;5.488;2023-10-13T01:55:13;19.10;99.90
26537;DHT22;14204;51.262;5.488;2023-10-13T01:57:39;19.20;99.90
26537;DHT22;14204;51.262;5.488;2023-10-13T02:00:09;19.20;99.90
26537;DHT22;14204;51.262;5.488;2023-10-13T02:02:45;19.20;99.90
26537;DHT22;14204;51.262;5.488;2023-10-13T02:05:11;19.20;99.90
26537;DHT22;14204;51.262;5.488;2023-10-13T02:07:42;19.10;99.90
26537;DHT22;14204;51.262;5.488;2023-10-13T02:10:11;19.10;99.90
26537;DHT22;14204;51.262;5.488;2023-10-13T02:12:38;19.20;99.90
26537;DHT22;14204;51.262;5.488;2023-10-13T02:15:10;19.20;99.90
26537;DHT22;14204;51.262;5.488;2023-10-13T02:17:46;19.20;99.90
26537;DHT22;14204;51.262;5.488;2023-10-13T02:20:17;19.20;99.90
26537;DHT22;14204;51.262;5.488;2023-10-13T02:22:56;19.20;99.90
26537;DHT22;14204;51.262;5.488;2023-10-13T02:25:21;19.20;99.90
26537;DHT22;14204;51.262;5.488;2023-10-13T02:28:05;19.20;99.90
26537;DHT22;14204;51.262;5.488;2023-10-13T02:30:41;19.20;99.90
26537;DHT22;14204;51.262;5.488;2023-10-13T02:33:13;19.30;99.90
26537;DHT22;14204;51.262;5.488;2023-10-13T02:35:40;19.30;99.90
26537;DHT22;14204;51.262;5.488;2023-10-13T02:38:24;19.30;99.90
26537;DHT22;14204;51.262;5.488;2023-10-13T02:40:56;19.20;99.90
26537;DHT22;14204;51.262;5.488;2023-10-13T02:43:22;19.20;99.90
26537;DHT22;14204;51.262;5.488;2023-10-13T02:45:54;19.30;99.90
26537;DHT22;14204;51.262;5.488;2023-10-13T02:48:27;19.20;99.90
26537;DHT22;14204;51.262;5.488;2023-10-13T02:51:06;19.30;99.90
26537;DHT22;14204;51.262;5.488;2023-10-13T02:53:49;19.30;99.90
26537;DHT22;14204;51.262;5.488;2023-10-13T02:56:16;19.30;99.90
26537;DHT22;14204;51.262;5.488;2023-10-13T02:58:48;19.30;99.90
26537;DHT22;14204;51.262;5.488;2023-10-13T03:01:19;19.30;99.90
26537;DHT22;14204;51.262;5.488;2023-10-13T03:03:50;19.40;99.90
26537;DHT22;14204;51.262;5.488;2023-10-13T03:06:18;19.30;99.90
26537;DHT22;14204;51.262;5.488;2023-10-13T03:09:04;19.30;99.90
26537;DHT22;14204;51.262;5.488;2023-10-13T03:11:59;19.40;99.90
26537;DHT22;14204;51.262;5.488;2023-10-13T03:14:25;19.30;99.90
26537;DHT22;14204;51.262;5.488;2023-10-13T03:16:52;19.30;99.90
26537;DHT22;14204;51.262;5.488;2023-10-13T03:19:18;19.30;99.90
26537;DHT22;14204;51.262;5.488;2023-10-13T03:21:45;19.30;99.90
26537;DHT22;14204;51.262;5.488;2023-10-13T03:24:21;19.30;99.90
26537;DHT22;14204;51.262;5.488;2023-10-13T03:27:02;19.30;99.90
26537;DHT22;14204;51.262;5.488;2023-10-13T03:29:39;19.20;99.90
26537;DHT22;14204;51.262;5.488;2023-10-13T03:32:13;19.20;99.90
26537;DHT22;14204;51.262;5.488;2023-10-13T03:34:43;19.20;99.90
26537;DHT22;14204;51.262;5.488;2023-10-13T03:37:18;19.20;99.90
26537;DHT22;14204;51.262;5.488;2023-10-13T03:39:45;19.20;99.90
26537;DHT22;14204;51.262;5.488;2023-10-13T03:42:11;19.20;99.90
26537;DHT22;14204;51.262;5.488;2023-10-13T03:44:47;19.20;99.90
26537;DHT22;14204;51.262;5.488;2023-10-13T03:47:13;19.30;99.90
26537;DHT22;14204;51.262;5.488;2023-10-13T03:49:54;19.30;99.90
26537;DHT22;14204;51.262;5.488;2023-10-13T03:52:39;19.20;99.90
26537;DHT22;14204;51.262;5.488;2023-10-13T03:55:05;19.20;99.90
26537;DHT22;14204;51.262;5.488;2023-10-13T03:57:32;19.30;99.90
26537;DHT22;14204;51.262;5.488;2023-10-13T03:59:59;19.30;99.90
26537;DHT22;14204;51.262;5.488;2023-10-13T04:02:33;19.30;99.90
26537;DHT22;14204;51.262;5.488;2023-10-13T04:04:59;19.30;99.90
26537;DHT22;14204;51.262;5.488;2023-10-13T04:07:33;19.30;99.90
26537;DHT22;14204;51.262;5.488;2023-10-13T04:10:07;19.30;99.90
26537;DHT22;14204;51.262;5.488;2023-10-13T04:13:05;19.40;99.90
26537;DHT22;14204;51.262;5.488;2023-10-13T04:15:49;19.30;99.90
26537;DHT22;14204;51.262;5.488;2023-10-13T04:18:41;19.40;99.90
26537;DHT22;14204;51.262;5.488;2023-10-13T04:21:26;19.40;99.90
26537;DHT22;14204;51.262;5.488;2023-10-13T04:24:08;19.40;99.90
26537;DHT22;14204;51.262;5.488;2023-10-13T04:26:49;19.40;99.90
26537;DHT22;14204;51.262;5.488;2023-10-13T04:29:34;19.30;99.90
26537;DHT22;14204;51.262;5.488;2023-10-13T04:32:15;19.40;99.90
26537;DHT22;14204;51.262;5.488;2023-10-13T04:34:55;19.40;99.90
26537;DHT22;14204;51.262;5.488;2023-10-13T04:37:24;19.40;99.90
26537;DHT22;14204;51.262;5.488;2023-10-13T04:39:58;19.40;99.90
26537;DHT22;14204;51.262;5.488;2023-10-13T04:42:37;19.40;99.90
26537;DHT22;14204;51.262;5.488;2023-10-13T04:45:17;19.40;99.90
26537;DHT22;14204;51.262;5.488;2023-10-13T04:47:58;19.40;99.90
26537;DHT22;14204;51.262;5.488;2023-10-13T04:50:48;19.50;99.90
26537;DHT22;14204;51.262;5.488;2023-10-13T04:53:23;19.40;99.90
26537;DHT22;14204;51.262;5.488;2023-10-13T04:56:21;19.50;99.90
26537;DHT22;14204;51.262;5.488;2023-10-13T04:59:05;19.50;99.90
26537;DHT22;14204;51.262;5.488;2023-10-13T05:01:44;19.40;99.90
26537;DHT22;14204;51.262;5.488;2023-10-13T05:04:28;19.40;99.90
26537;DHT22;14204;51.262;5.488;2023-10-13T05:07:05;19.40;99.90
26537;DHT22;14204;51.262;5.488;2023-10-13T05:09:49;19.40;99.90
26537;DHT22;14204;51.262;5.488;2023-10-13T05:12:34;19.30;99.90
26537;DHT22;14204;51.262;5.488;2023-10-13T05:15:19;19.30;99.90
26537;DHT22;14204;51.262;5.488;2023-10-13T05:18:04;19.40;99.90
26537;DHT22;14204;51.262;5.488;2023-10-13T05:20:48;19.50;99.90
26537;DHT22;14204;51.262;5.488;2023-10-13T05:23:32;19.50;99.90
26537;DHT22;14204;51.262;5.488;2023-10-13T05:26:16;19.40;99.90
26537;DHT22;14204;51.262;5.488;2023-10-13T05:29:00;19.50;99.90
26537;DHT22;14204;51.262;5.488;2023-10-13T05:31:44;19.50;99.90
26537;DHT22;14204;51.262;5.488;2023-10-13T05:34:28;19.40;99.90
26537;DHT22;14204;51.262;5.488;2023-10-13T05:37:13;19.40;99.90
26537;DHT22;14204;51.262;5.488;2023-10-13T05:39:58;19.50;99.90
26537;DHT22;14204;51.262;5.488;2023-10-13T05:42:42;19.50;99.90
26537;DHT22;14204;51.262;5.488;2023-10-13T05:45:27;19.40;99.90
26537;DHT22;14204;51.262;5.488;2023-10-13T05:48:11;19.40;99.90
26537;DHT22;14204;51.262;5.488;2023-10-13T05:50:44;19.50;99.90
26537;DHT22;14204;51.262;5.488;2023-10-13T05:53:36;19.50;99.90
26537;DHT22;14204;51.262;5.488;2023-10-13T05:56:20;19.50;99.90
26537;DHT22;14204;51.262;5.488;2023-10-13T05:59:04;19.50;99.90
26537;DHT22;14204;51.262;5.488;2023-10-13T06:01:48;19.50;99.90
26537;DHT22;14204;51.262;5.488;2023-10-13T06:04:32;19.40;99.90
26537;DHT22;14204;51.262;5.488;2023-10-13T06:07:16;19.40;99.90
26537;DHT22;14204;51.262;5.488;2023-10-13T06:10:00;19.50;99.90
26537;DHT22;14204;51.262;5.488;2023-10-13T06:12:44;19.40;99.90
26537;DHT22;14204;51.262;5.488;2023-10-13T06:15:29;19.40;99.90
26537;DHT22;14204;51.262;5.488;2023-10-13T06:18:13;19.50;99.90
26537;DHT22;14204;51.262;5.488;2023-10-13T06:20:57;19.50;99.90
26537;DHT22;14204;51.262;5.488;2023-10-13T06:23:41;19.50;99.90
26537;DHT22;14204;51.262;5.488;2023-10-13T06:26:25;19.50;99.90
26537;DHT22;14204;51.262;5.488;2023-10-13T06:29:09;19.50;99.90
26537;DHT22;14204;51.262;5.488;2023-10-13T06:31:35;19.50;99.90
26537;DHT22;14204;51.262;5.488;2023-10-13T06:34:02;19.50;99.90
26537;DHT22;14204;51.262;5.488;2023-10-13T06:36:29;19.50;99.90
26537;DHT22;14204;51.262;5.488;2023-10-13T06:38:54;19.50;99.90
26537;DHT22;14204;51.262;5.488;2023-10-13T06:41:43;19.50;99.90
26537;DHT22;14204;51.262;5.488;2023-10-13T06:44:09;19.60;99.90
26537;DHT22;14204;51.262;5.488;2023-10-13T06:46:40;19.60;99.90
26537;DHT22;14204;51.262;5.488;2023-10-13T06:49:06;19.60;99.90
26537;DHT22;14204;51.262;5.488;2023-10-13T06:51:36;19.60;99.90
26537;DHT22;14204;51.262;5.488;2023-10-13T06:54:04;19.60;99.90
26537;DHT22;14204;51.262;5.488;2023-10-13T06:56:35;19.50;99.90
26537;DHT22;14204;51.262;5.488;2023-10-13T06:59:05;19.60;99.90
26537;DHT22;14204;51.262;5.488;2023-10-13T07:01:33;19.60;99.90
26537;DHT22;14204;51.262;5.488;2023-10-13T07:04:07;19.60;99.90
26537;DHT22;14204;51.262;5.488;2023-10-13T07:06:42;19.60;99.90
26537;DHT22;14204;51.262;5.488;2023-10-13T07:09:18;19.60;99.90
26537;DHT22;14204;51.262;5.488;2023-10-13T07:12:05;19.60;99.90
26537;DHT22;14204;51.262;5.488;2023-10-13T07:14:51;19.50;99.90
26537;DHT22;14204;51.262;5.488;2023-10-13T07:17:29;19.60;99.90
26537;DHT22;14204;51.262;5.488;2023-10-13T07:19:58;19.50;99.90
26537;DHT22;14204;51.262;5.488;2023-10-13T07:22:43;19.60;99.90
26537;DHT22;14204;51.262;5.488;2023-10-13T07:25:23;19.60;99.90
26537;DHT22;14204;51.262;5.488;2023-10-13T07:27:51;19.50;99.90
26537;DHT22;14204;51.262;5.488;2023-10-13T07:30:17;19.60;99.90
26537;DHT22;14204;51.262;5.488;2023-10-13T07:32:45;19.60;99.90
26537;DHT22;14204;51.262;5.488;2023-10-13T07:35:16;19.60;99.90
26537;DHT22;14204;51.262;5.488;2023-10-13T07:37:46;19.70;99.90
26537;DHT22;14204;51.262;5.488;2023-10-13T07:40:18;19.70;99.90
26537;DHT22;14204;51.262;5.488;2023-10-13T07:42:56;19.80;99.90
26537;DHT22;14204;51.262;5.488;2023-10-13T07:45:29;19.90;99.90
26537;DHT22;14204;51.262;5.488;2023-10-13T07:48:10;19.90;99.90
26537;DHT22;14204;51.262;5.488;2023-10-13T07:51:01;20.00;99.90
26537;DHT22;14204;51.262;5.488;2023-10-13T07:53:31;20.00;99.90
26537;DHT22;14204;51.262;5.488;2023-10-13T07:56:03;20.00;99.90
26537;DHT22;14204;51.262;5.488;2023-10-13T07:58:31;20.10;99.90
26537;DHT22;14204;51.262;5.488;2023-10-13T08:01:00;20.10;99.90
26537;DHT22;14204;51.262;5.488;2023-10-13T08:03:35;20.10;99.90
26537;DHT22;14204;51.262;5.488;2023-10-13T08:06:14;20.10;99.90
26537;DHT22;14204;51.262;5.488;2023-10-13T08:08:42;20.10;99.90
26537;DHT22;14204;51.262;5.488;2023-10-13T08:11:10;20.20;99.90
26537;DHT22;14204;51.262;5.488;2023-10-13T08:13:52;20.20;99.90
26537;DHT22;14204;51.262;5.488;2023-10-13T08:16:29;20.20;99.90
26537;DHT22;14204;51.262;5.488;2023-10-13T08:19:15;20.20;99.90
26537;DHT22;14204;51.262;5.488;2023-10-13T08:21:42;20.20;99.90
26537;DHT22;14204;51.262;5.488;2023-10-13T08:24:16;20.20;99.90
26537;DHT22;14204;51.262;5.488;2023-10-13T08:26:50;20.20;99.90
26537;DHT22;14204;51.262;5.488;2023-10-13T08:29:34;20.30;99.90
26537;DHT22;14204;51.262;5.488;2023-10-13T08:32:18;20.30;99.90
26537;DHT22;14204;51.262;5.488;2023-10-13T08:34:54;20.40;99.90
26537;DHT22;14204;51.262;5.488;2023-10-13T08:37:20;20.40;99.90
26537;DHT22;14204;51.262;5.488;2023-10-13T08:39:54;20.40;99.90
26537;DHT22;14204;51.262;5.488;2023-10-13T08:42:34;20.40;99.90
26537;DHT22;14204;51.262;5.488;2023-10-13T08:47:56;20.40;99.90
26537;DHT22;14204;51.262;5.488;2023-10-13T08:50:48;20.50;99.90
26537;DHT22;14204;51.262;5.488;2023-10-13T08:53:29;20.50;99.90
26537;DHT22;14204;51.262;5.488;2023-10-13T08:56:13;20.60;99.90
26537;DHT22;14204;51.262;5.488;2023-10-13T09:01:55;20.70;99.90
26537;DHT22;14204;51.262;5.488;2023-10-13T09:04:42;20.70;99.90
26537;DHT22;14204;51.262;5.488;2023-10-13T09:07:09;20.70;99.90
26537;DHT22;14204;51.262;5.488;2023-10-13T09:12:26;20.70;99.90
26537;DHT22;14204;51.262;5.488;2023-10-13T09:15:00;20.60;99.90
26537;DHT22;14204;51.262;5.488;2023-10-13T09:20:27;20.70;99.90
26537;DHT22;14204;51.262;5.488;2023-10-13T09:23:09;20.70;99.90
26537;DHT22;14204;51.262;5.488;2023-10-13T09:25:39;20.80;99.90
26537;DHT22;14204;51.262;5.488;2023-10-13T09:28:19;20.80;99.90
26537;DHT22;14204;51.262;5.488;2023-10-13T09:30:48;20.90;99.90
26537;DHT22;14204;51.262;5.488;2023-10-13T09:33:23;20.90;99.90
26537;DHT22;14204;51.262;5.488;2023-10-13T09:35:59;21.00;99.90
26537;DHT22;14204;51.262;5.488;2023-10-13T09:38:27;21.10;99.90
26537;DHT22;14204;51.262;5.488;2023-10-13T09:40:53;21.20;99.90
26537;DHT22;14204;51.262;5.488;2023-10-13T09:43:23;21.30;99.90
26537;DHT22;14204;51.262;5.488;2023-10-13T09:45:53;21.40;99.90
26537;DHT22;14204;51.262;5.488;2023-10-13T09:48:34;21.50;99.90
26537;DHT22;14204;51.262;5.488;2023-10-13T09:51:03;21.70;99.90
26537;DHT22;14204;51.262;5.488;2023-10-13T09:53:33;21.70;99.90
26537;DHT22;14204;51.262;5.488;2023-10-13T09:56:10;21.70;99.90
26537;DHT22;14204;51.262;5.488;2023-10-13T10:01:27;21.80;99.90
26537;DHT22;14204;51.262;5.488;2023-10-13T10:04:07;21.80;99.90
26537;DHT22;14204;51.262;5.488;2023-10-13T10:06:35;21.80;99.90
26537;DHT22;14204;51.262;5.488;2023-10-13T10:09:12;21.80;99.90
26537;DHT22;14204;51.262;5.488;2023-10-13T10:11:47;22.00;99.90
26537;DHT22;14204;51.262;5.488;2023-10-13T10:14:17;22.00;99.90
26537;DHT22;14204;51.262;5.488;2023-10-13T10:17:04;22.10;99.90
26537;DHT22;14204;51.262;5.488;2023-10-13T10:19:44;22.00;99.90
26537;DHT22;14204;51.262;5.488;2023-10-13T10:22:11;22.10;99.90
26537;DHT22;14204;51.262;5.488;2023-10-13T10:24:42;22.20;99.90
26537;DHT22;14204;51.262;5.488;2023-10-13T10:27:09;22.30;99.90
26537;DHT22;14204;51.262;5.488;2023-10-13T10:29:52;22.40;99.90
26537;DHT22;14204;51.262;5.488;2023-10-13T10:32:18;22.50;99.90
26537;DHT22;14204;51.262;5.488;2023-10-13T10:34:44;22.50;99.90
26537;DHT22;14204;51.262;5.488;2023-10-13T10:37:11;22.50;99.90
26537;DHT22;14204;51.262;5.488;2023-10-13T10:39:38;22.50;99.90
26537;DHT22;14204;51.262;5.488;2023-10-13T10:42:12;22.50;99.90
26537;DHT22;14204;51.262;5.488;2023-10-13T10:44:41;22.40;99.90
26537;DHT22;14204;51.262;5.488;2023-10-13T10:47:14;22.50;99.90
26537;DHT22;14204;51.262;5.488;2023-10-13T10:50:04;22.50;99.90
26537;DHT22;14204;51.262;5.488;2023-10-13T10:52:45;22.50;99.90
26537;DHT22;14204;51.262;5.488;2023-10-13T10:55:12;22.50;99.90
26537;DHT22;14204;51.262;5.488;2023-10-13T10:57:42;22.50;99.90
26537;DHT22;14204;51.262;5.488;2023-10-13T11:00:20;22.60;99.90
26537;DHT22;14204;51.262;5.488;2023-10-13T11:02:56;22.60;99.90
26537;DHT22;14204;51.262;5.488;2023-10-13T11:05:23;22.60;99.90
26537;DHT22;14204;51.262;5.488;2023-10-13T11:07:58;22.60;99.90
26537;DHT22;14204;51.262;5.488;2023-10-13T11:10:23;22.60;99.90
26537;DHT22;14204;51.262;5.488;2023-10-13T11:12:58;22.60;99.90
26537;DHT22;14204;51.262;5.488;2023-10-13T11:15:44;22.70;99.90
26537;DHT22;14204;51.262;5.488;2023-10-13T11:18:10;22.80;99.90
26537;DHT22;14204;51.262;5.488;2023-10-13T11:20:42;22.80;99.90
26537;DHT22;14204;51.262;5.488;2023-10-13T11:23:14;22.80;99.90
26537;DHT22;14204;51.262;5.488;2023-10-13T11:25:41;22.80;99.90
26537;DHT22;14204;51.262;5.488;2023-10-13T11:28:14;23.00;99.90
26537;DHT22;14204;51.262;5.488;2023-10-13T11:30:45;23.00;99.90
26537;DHT22;14204;51.262;5.488;2023-10-13T11:33:16;23.10;99.90
26537;DHT22;14204;51.262;5.488;2023-10-13T11:35:53;23.20;99.90
26537;DHT22;14204;51.262;5.488;2023-10-13T11:38:33;23.30;99.90
26537;DHT22;14204;51.262;5.488;2023-10-13T11:41:05;23.50;99.90
26537;DHT22;14204;51.262;5.488;2023-10-13T11:43:38;23.60;99.90
26537;DHT22;14204;51.262;5.488;2023-10-13T11:46:07;23.60;99.90
26537;DHT22;14204;51.262;5.488;2023-10-13T11:48:33;23.50;99.90
26537;DHT22;14204;51.262;5.488;2023-10-13T11:51:06;23.60;99.90
26537;DHT22;14204;51.262;5.488;2023-10-13T11:53:36;23.60;99.90
26537;DHT22;14204;51.262;5.488;2023-10-13T11:56:03;23.60;99.90
26537;DHT22;14204;51.262;5.488;2023-10-13T11:58:40;23.60;99.90
26537;DHT22;14204;51.262;5.488;2023-10-13T12:01:06;23.60;99.90
26537;DHT22;14204;51.262;5.488;2023-10-13T12:03:38;23.70;99.90
26537;DHT22;14204;51.262;5.488;2023-10-13T12:06:23;23.60;99.90
26537;DHT22;14204;51.262;5.488;2023-10-13T12:09:01;23.70;99.90
26537;DHT22;14204;51.262;5.488;2023-10-13T12:11:44;23.70;99.90
26537;DHT22;14204;51.262;5.488;2023-10-13T12:14:11;23.80;99.90
26537;DHT22;14204;51.262;5.488;2023-10-13T12:16:43;23.70;99.90
26537;DHT22;14204;51.262;5.488;2023-10-13T12:19:15;23.70;99.90
26537;DHT22;14204;51.262;5.488;2023-10-13T12:21:43;23.60;99.90
26537;DHT22;14204;51.262;5.488;2023-10-13T12:24:15;23.70;99.90
26537;DHT22;14204;51.262;5.488;2023-10-13T12:27:00;23.70;99.90
26537;DHT22;14204;51.262;5.488;2023-10-13T12:29:26;23.60;99.90
26537;DHT22;14204;51.262;5.488;2023-10-13T12:31:55;23.70;99.90
26537;DHT22;14204;51.262;5.488;2023-10-13T12:34:38;23.70;99.90
26537;DHT22;14204;51.262;5.488;2023-10-13T12:37:33;23.60;99.90
26537;DHT22;14204;51.262;5.488;2023-10-13T12:40:19;23.70;99.90
26537;DHT22;14204;51.262;5.488;2023-10-13T12:43:07;23.70;99.90
26537;DHT22;14204;51.262;5.488;2023-10-13T12:45:51;23.70;99.90
26537;DHT22;14204;51.262;5.488;2023-10-13T12:48:37;23.70;99.90
26537;DHT22;14204;51.262;5.488;2023-10-13T12:51:23;23.50;99.90
26537;DHT22;14204;51.262;5.488;2023-10-13T12:54:00;23.50;99.90
26537;DHT22;14204;51.262;5.488;2023-10-13T12:56:39;23.50;99.90
26537;DHT22;14204;51.262;5.488;2023-10-13T12:59:09;23.60;99.90
26537;DHT22;14204;51.262;5.488;2023-10-13T13:01:39;23.60;99.90
26537;DHT22;14204;51.262;5.488;2023-10-13T13:04:11;23.50;99.90
26537;DHT22;14204;51.262;5.488;2023-10-13T13:06:46;23.50;99.90
26537;DHT22;14204;51.262;5.488;2023-10-13T13:09:13;23.50;99.90
26537;DHT22;14204;51.262;5.488;2023-10-13T13:11:38;23.50;99.90
26537;DHT22;14204;51.262;5.488;2023-10-13T13:14:07;23.50;99.90
26537;DHT22;14204;51.262;5.488;2023-10-13T13:16:34;23.50;99.90
26537;DHT22;14204;51.262;5.488;2023-10-13T13:19:00;23.50;99.90
26537;DHT22;14204;51.262;5.488;2023-10-13T13:21:36;23.50;99.90
26537;DHT22;14204;51.262;5.488;2023-10-13T13:24:02;23.50;99.90
26537;DHT22;14204;51.262;5.488;2023-10-13T13:26:30;23.50;99.90
26537;DHT22;14204;51.262;5.488;2023-10-13T13:28:56;23.50;99.90
26537;DHT22;14204;51.262;5.488;2023-10-13T13:31:23;23.50;99.90
26537;DHT22;14204;51.262;5.488;2023-10-13T13:33:54;23.50;99.90
26537;DHT22;14204;51.262;5.488;2023-10-13T13:36:20;23.50;99.90
26537;DHT22;14204;51.262;5.488;2023-10-13T13:38:47;23.40;99.90
26537;DHT22;14204;51.262;5.488;2023-10-13T13:41:17;23.50;99.90
26537;DHT22;14204;51.262;5.488;2023-10-13T13:43:44;23.50;99.90
26537;DHT22;14204;51.262;5.488;2023-10-13T13:46:19;23.40;99.90
26537;DHT22;14204;51.262;5.488;2023-10-13T13:48:50;23.40;99.90
26537;DHT22;14204;51.262;5.488;2023-10-13T13:51:23;23.40;99.90
26537;DHT22;14204;51.262;5.488;2023-10-13T13:53:56;23.50;99.90
26537;DHT22;14204;51.262;5.488;2023-10-13T13:56:22;23.50;99.90
26537;DHT22;14204;51.262;5.488;2023-10-13T13:58:52;23.40;99.90
26537;DHT22;14204;51.262;5.488;2023-10-13T14:01:33;23.50;99.90
26537;DHT22;14204;51.262;5.488;2023-10-13T14:04:00;23.50;99.90
26537;DHT22;14204;51.262;5.488;2023-10-13T14:06:29;23.50;99.90
26537;DHT22;14204;51.262;5.488;2023-10-13T14:08:56;23.50;99.90
26537;DHT22;14204;51.262;5.488;2023-10-13T14:11:27;23.50;99.90
26537;DHT22;14204;51.262;5.488;2023-10-13T14:14:13;23.50;99.90
26537;DHT22;14204;51.262;5.488;2023-10-13T14:16:54;23.50;99.90
26537;DHT22;14204;51.262;5.488;2023-10-13T14:19:28;23.50;99.90
26537;DHT22;14204;51.262;5.488;2023-10-13T14:21:58;23.40;99.90
26537;DHT22;14204;51.262;5.488;2023-10-13T14:24:25;23.40;99.90
26537;DHT22;14204;51.262;5.488;2023-10-13T14:26:57;23.30;99.90
26537;DHT22;14204;51.262;5.488;2023-10-13T14:29:44;23.30;99.90
26537;DHT22;14204;51.262;5.488;2023-10-13T14:32:13;23.30;99.90
26537;DHT22;14204;51.262;5.488;2023-10-13T14:34:44;23.30;99.90
26537;DHT22;14204;51.262;5.488;2023-10-13T14:37:10;23.30;99.90
26537;DHT22;14204;51.262;5.488;2023-10-13T14:39:42;23.30;99.90
26537;DHT22;14204;51.262;5.488;2023-10-13T14:42:08;23.30;99.90
26537;DHT22;14204;51.262;5.488;2023-10-13T14:44:34;23.30;99.90
26537;DHT22;14204;51.262;5.488;2023-10-13T14:47:01;23.40;99.90
26537;DHT22;14204;51.262;5.488;2023-10-13T14:49:27;23.40;99.90
26537;DHT22;14204;51.262;5.488;2023-10-13T14:51:54;23.30;99.90
26537;DHT22;14204;51.262;5.488;2023-10-13T14:54:25;23.30;99.90
26537;DHT22;14204;51.262;5.488;2023-10-13T14:57:03;23.40;99.90
26537;DHT22;14204;51.262;5.488;2023-10-13T14:59:29;23.40;99.90
26537;DHT22;14204;51.262;5.488;2023-10-13T15:02:00;23.30;99.90
26537;DHT22;14204;51.262;5.488;2023-10-13T15:04:26;23.30;99.90
26537;DHT22;14204;51.262;5.488;2023-10-13T15:06:54;23.30;99.90
26537;DHT22;14204;51.262;5.488;2023-10-13T15:09:21;23.20;99.90
26537;DHT22;14204;51.262;5.488;2023-10-13T15:11:51;23.20;99.90
26537;DHT22;14204;51.262;5.488;2023-10-13T15:14:20;23.20;99.90
26537;DHT22;14204;51.262;5.488;2023-10-13T15:16:46;23.20;99.90
26537;DHT22;14204;51.262;5.488;2023-10-13T15:19:12;23.20;99.90
26537;DHT22;14204;51.262;5.488;2023-10-13T15:21:38;23.20;99.90
26537;DHT22;14204;51.262;5.488;2023-10-13T15:24:06;23.10;99.90
26537;DHT22;14204;51.262;5.488;2023-10-13T15:26:52;23.10;99.90
26537;DHT22;14204;51.262;5.488;2023-10-13T15:29:26;23.10;99.90
26537;DHT22;14204;51.262;5.488;2023-10-13T15:31:55;23.00;99.90
26537;DHT22;14204;51.262;5.488;2023-10-13T15:34:24;22.90;99.90
26537;DHT22;14204;51.262;5.488;2023-10-13T15:36:52;23.00;99.90
26537;DHT22;14204;51.262;5.488;2023-10-13T15:39:20;22.90;99.90
26537;DHT22;14204;51.262;5.488;2023-10-13T15:41:57;22.90;99.90
26537;DHT22;14204;51.262;5.488;2023-10-13T15:44:28;22.70;99.90
26537;DHT22;14204;51.262;5.488;2023-10-13T15:46:58;22.60;99.90
26537;DHT22;14204;51.262;5.488;2023-10-13T15:49:25;22.60;99.90
26537;DHT22;14204;51.262;5.488;2023-10-13T15:51:53;22.50;99.90
26537;DHT22;14204;51.262;5.488;2023-10-13T15:54:22;22.50;99.90
26537;DHT22;14204;51.262;5.488;2023-10-13T15:56:50;22.50;99.90
26537;DHT22;14204;51.262;5.488;2023-10-13T15:59:19;22.40;99.90
26537;DHT22;14204;51.262;5.488;2023-10-13T16:01:45;22.40;99.90
26537;DHT22;14204;51.262;5.488;2023-10-13T16:04:14;22.30;99.90
26537;DHT22;14204;51.262;5.488;2023-10-13T16:06:41;22.30;99.90
26537;DHT22;14204;51.262;5.488;2023-10-13T16:09:07;22.10;99.90
26537;DHT22;14204;51.262;5.488;2023-10-13T16:11:43;22.00;99.90
26537;DHT22;14204;51.262;5.488;2023-10-13T16:14:16;22.00;99.90
26537;DHT22;14204;51.262;5.488;2023-10-13T16:16:59;22.00;99.90
26537;DHT22;14204;51.262;5.488;2023-10-13T16:19:31;21.80;99.90
26537;DHT22;14204;51.262;5.488;2023-10-13T16:22:06;21.80;99.90
26537;DHT22;14204;51.262;5.488;2023-10-13T16:24:35;21.70;99.90
26537;DHT22;14204;51.262;5.488;2023-10-13T16:27:01;21.60;99.90